Portada
METAR-TAF:

METAR-TAF

Aeroports :

Pilanesberg International Airport

Sun City, Sud-àfrica

latitud: 25-20-01S, longitud: 027-10-24E, altitud: 1040 m

Observació

L'informe es va fer fa 10 minuts, a les 10:00 UTC
Vent 5 kt del Nord-Est
Temperatura 24°C
Humitat 57%
Pressió 1020 hPa

METAR: FAPN 271000Z AUTO 04005KT //// // ////// 24/15 Q1020

Hora: 12:10 (10:10 UTC)


TAF: manca

Observacions i pronòstics meteorològics de més de 4000 aeroports (METAR i TAF).

Les estacions disponibles són els punts grocs i vermells al mapa.

Posi el ratolí al punt desitjat per veure el nom de l'estació.

Feu clic per veure les observacions i els pronòstics meteorològics.

Per canviar el mapa: feu clic els botons verds amb una creu de color negre per apropar; al botó verd amb un guió per allunyar la imatge; o en les fletxes verdes per a mapes adjacents.


METAR-TAF: